AAL3211 KFAT-KPHX
Flight info
| Callsign | AAL3211 |
|---|---|
| Flight time | N/A |
| Altitude | 39000 |
| Route | YOSE3 NTELL CABAB Q174 SKANN Q13 PRFUM WOTRO BRUSR1 |
| Aircraft | B38M/M-SDE1FGHILORVWXY/HB1 |
Departure
| Time | 2026-04-26 18:24 |
|---|---|
| Airport | Fresno Yosemite International Airport (KFAT) |
Arrival
| Time | N/A |
|---|---|
| Airport | Phoenix Sky Harbor International Airport (KPHX) |
| Time | Latitude | Longitude | Altitude | Speed | Heading |
|---|---|---|---|---|---|
| 2026-04-26 17:54 | 36.77200 | -119.71917 | 335 ft | 0 kts | 121° |
| 2026-04-26 18:15 | 36.77202 | -119.71920 | 326 ft | 1 kts | 121° |
| 2026-04-26 18:15 | 36.77204 | -119.71925 | 336 ft | 1 kts | 121° |
| 2026-04-26 18:15 | 36.77207 | -119.71931 | 335 ft | 1 kts | 121° |
| 2026-04-26 18:16 | 36.77210 | -119.71937 | 335 ft | 1 kts | 121° |
| 2026-04-26 18:16 | 36.77218 | -119.71955 | 336 ft | 2 kts | 113° |
| 2026-04-26 18:16 | 36.77220 | -119.71970 | 335 ft | 2 kts | 77° |
| 2026-04-26 18:17 | 36.77216 | -119.71982 | 337 ft | 0 kts | 45° |
| 2026-04-26 18:19 | 36.77216 | -119.71981 | 337 ft | 1 kts | 45° |
| 2026-04-26 18:19 | 36.77233 | -119.71967 | 338 ft | 6 kts | 27° |
| 2026-04-26 18:20 | 36.77280 | -119.71909 | 339 ft | 12 kts | 54° |
| 2026-04-26 18:20 | 36.77315 | -119.71841 | 337 ft | 8 kts | 64° |
| 2026-04-26 18:20 | 36.77320 | -119.71771 | 339 ft | 9 kts | 112° |
| 2026-04-26 18:20 | 36.77309 | -119.71747 | 349 ft | 10 kts | 119° |
| 2026-04-26 18:21 | 36.77227 | -119.71598 | 337 ft | 17 kts | 126° |
| 2026-04-26 18:21 | 36.77139 | -119.71448 | 336 ft | 26 kts | 125° |
| 2026-04-26 18:21 | 36.77013 | -119.71227 | 332 ft | 35 kts | 126° |
| 2026-04-26 18:21 | 36.76867 | -119.70975 | 336 ft | 36 kts | 126° |
| 2026-04-26 18:22 | 36.76773 | -119.70797 | 338 ft | 22 kts | 109° |
| 2026-04-26 18:22 | 36.76762 | -119.70603 | 340 ft | 23 kts | 92° |
| 2026-04-26 18:22 | 36.76808 | -119.70441 | 337 ft | 20 kts | 37° |
| 2026-04-26 18:22 | 36.76892 | -119.70402 | 348 ft | 20 kts | 348° |
| 2026-04-26 18:23 | 36.76950 | -119.70470 | 352 ft | 15 kts | 306° |
| 2026-04-26 18:23 | 36.77205 | -119.70915 | 335 ft | 109 kts | 305° |
| 2026-04-26 18:23 | 36.77790 | -119.71950 | 409 ft | 176 kts | 305° |
| 2026-04-26 18:23 | 36.78607 | -119.73335 | 908 ft | 220 kts | 306° |
| 2026-04-26 18:24 | 36.79534 | -119.74948 | 2121 ft | 228 kts | 304° |
| 2026-04-26 18:24 | 36.80455 | -119.76628 | 3294 ft | 242 kts | 304° |
| 2026-04-26 18:24 | 36.81436 | -119.78418 | 4286 ft | 256 kts | 304° |
| 2026-04-26 18:24 | 36.82481 | -119.80269 | 5410 ft | 264 kts | 308° |
| 2026-04-26 18:25 | 36.83945 | -119.81635 | 6588 ft | 269 kts | 340° |
| 2026-04-26 18:25 | 36.85172 | -119.81911 | 7293 ft | 275 kts | 1° |
| 2026-04-26 18:25 | 36.87030 | -119.81343 | 8411 ft | 280 kts | 26° |
| 2026-04-26 18:25 | 36.88592 | -119.79866 | 9512 ft | 287 kts | 50° |
| 2026-04-26 18:26 | 36.89712 | -119.76871 | 10868 ft | 293 kts | 70° |
| 2026-04-26 18:26 | 36.90564 | -119.74482 | 11564 ft | 311 kts | 62° |
| 2026-04-26 18:26 | 36.91228 | -119.72811 | 11927 ft | 325 kts | 62° |
| 2026-04-26 18:26 | 36.92255 | -119.70194 | 12507 ft | 343 kts | 63° |
| 2026-04-26 18:27 | 36.93297 | -119.67485 | 13181 ft | 356 kts | 63° |
| 2026-04-26 18:27 | 36.94371 | -119.64647 | 13977 ft | 366 kts | 63° |
| 2026-04-26 18:27 | 36.95452 | -119.61744 | 14780 ft | 371 kts | 63° |
| 2026-04-26 18:27 | 36.96546 | -119.58777 | 15511 ft | 379 kts | 63° |
| 2026-04-26 18:28 | 36.97649 | -119.55768 | 16253 ft | 383 kts | 64° |
| 2026-04-26 18:28 | 36.98759 | -119.52720 | 16937 ft | 388 kts | 64° |
| 2026-04-26 18:28 | 36.99883 | -119.49629 | 17622 ft | 393 kts | 64° |
| 2026-04-26 18:28 | 37.01018 | -119.46503 | 18323 ft | 397 kts | 64° |
| 2026-04-26 18:29 | 37.02168 | -119.43336 | 18915 ft | 402 kts | 64° |
| 2026-04-26 18:29 | 37.03330 | -119.40129 | 19555 ft | 406 kts | 64° |
| 2026-04-26 18:29 | 37.04495 | -119.36906 | 20196 ft | 409 kts | 64° |
| 2026-04-26 18:29 | 37.05661 | -119.33682 | 20760 ft | 414 kts | 64° |
| 2026-04-26 18:30 | 37.06850 | -119.30382 | 21341 ft | 417 kts | 64° |
| 2026-04-26 18:30 | 37.08050 | -119.27053 | 21899 ft | 421 kts | 64° |
| 2026-04-26 18:30 | 37.09258 | -119.23697 | 22483 ft | 425 kts | 64° |
| 2026-04-26 18:30 | 37.10475 | -119.20308 | 23043 ft | 429 kts | 64° |
| 2026-04-26 18:31 | 37.11703 | -119.16885 | 23550 ft | 433 kts | 65° |
| 2026-04-26 18:31 | 37.12944 | -119.13428 | 23991 ft | 437 kts | 65° |
| 2026-04-26 18:31 | 37.14191 | -119.09944 | 24462 ft | 440 kts | 65° |
| 2026-04-26 18:31 | 37.15445 | -119.06437 | 24919 ft | 443 kts | 65° |
| 2026-04-26 18:32 | 37.16691 | -119.02947 | 25348 ft | 446 kts | 65° |
| 2026-04-26 18:32 | 37.17959 | -118.99391 | 25775 ft | 449 kts | 65° |
| 2026-04-26 18:32 | 37.19235 | -118.95807 | 26198 ft | 452 kts | 64° |
| 2026-04-26 18:32 | 37.20517 | -118.92197 | 26650 ft | 454 kts | 65° |
| 2026-04-26 18:33 | 37.21802 | -118.88574 | 27131 ft | 454 kts | 65° |
| 2026-04-26 18:33 | 37.23083 | -118.84959 | 27675 ft | 453 kts | 65° |
| 2026-04-26 18:33 | 37.24363 | -118.81342 | 28223 ft | 453 kts | 65° |
| 2026-04-26 18:33 | 37.25641 | -118.77731 | 28735 ft | 452 kts | 64° |
| 2026-04-26 18:34 | 37.26907 | -118.74122 | 29255 ft | 452 kts | 67° |
| 2026-04-26 18:34 | 37.27709 | -118.70317 | 29776 ft | 452 kts | 83° |
| 2026-04-26 18:34 | 37.28034 | -118.66400 | 30224 ft | 452 kts | 83° |
| 2026-04-26 18:34 | 37.28379 | -118.62477 | 30558 ft | 452 kts | 84° |
| 2026-04-26 18:35 | 37.28697 | -118.58610 | 30993 ft | 450 kts | 85° |
| 2026-04-26 18:35 | 37.29004 | -118.54701 | 31373 ft | 451 kts | 85° |
| 2026-04-26 18:35 | 37.29306 | -118.50779 | 31738 ft | 451 kts | 85° |
| 2026-04-26 18:35 | 37.29604 | -118.46861 | 32122 ft | 451 kts | 85° |
| 2026-04-26 18:36 | 37.29901 | -118.42942 | 32450 ft | 452 kts | 85° |
| 2026-04-26 18:36 | 37.30198 | -118.39016 | 32778 ft | 452 kts | 85° |
| 2026-04-26 18:36 | 37.30494 | -118.35084 | 33135 ft | 452 kts | 85° |
| 2026-04-26 18:36 | 37.30788 | -118.31146 | 33481 ft | 452 kts | 85° |
| 2026-04-26 18:37 | 37.31081 | -118.27216 | 33821 ft | 452 kts | 85° |
| 2026-04-26 18:37 | 37.31372 | -118.23281 | 34118 ft | 452 kts | 85° |
| 2026-04-26 18:37 | 37.31663 | -118.19342 | 34365 ft | 453 kts | 85° |
| 2026-04-26 18:37 | 37.31952 | -118.15406 | 34620 ft | 453 kts | 85° |
| 2026-04-26 18:38 | 37.32241 | -118.11461 | 34812 ft | 453 kts | 85° |
| 2026-04-26 18:38 | 37.32524 | -118.07570 | 35061 ft | 454 kts | 85° |
| 2026-04-26 18:38 | 37.32810 | -118.03623 | 35314 ft | 454 kts | 86° |
| 2026-04-26 18:38 | 37.33094 | -117.99683 | 35578 ft | 453 kts | 86° |
| 2026-04-26 18:39 | 37.33377 | -117.95738 | 35820 ft | 453 kts | 86° |
| 2026-04-26 18:39 | 37.33660 | -117.91789 | 35988 ft | 454 kts | 86° |
| 2026-04-26 18:39 | 37.33941 | -117.87837 | 36226 ft | 454 kts | 86° |
| 2026-04-26 18:39 | 37.34221 | -117.83884 | 36463 ft | 454 kts | 86° |
| 2026-04-26 18:40 | 37.34495 | -117.79985 | 36681 ft | 454 kts | 86° |
| 2026-04-26 18:40 | 37.34773 | -117.76031 | 36894 ft | 454 kts | 86° |
| 2026-04-26 18:40 | 37.35050 | -117.72077 | 37101 ft | 454 kts | 86° |
| 2026-04-26 18:40 | 37.35325 | -117.68116 | 37301 ft | 455 kts | 86° |
| 2026-04-26 18:41 | 37.35597 | -117.64159 | 37496 ft | 455 kts | 86° |
| 2026-04-26 18:41 | 37.35869 | -117.60197 | 37708 ft | 455 kts | 86° |
| 2026-04-26 18:41 | 37.36140 | -117.56238 | 37868 ft | 455 kts | 86° |
| 2026-04-26 18:41 | 37.36410 | -117.52269 | 38028 ft | 456 kts | 87° |
| 2026-04-26 18:42 | 37.36678 | -117.48309 | 38197 ft | 455 kts | 87° |
| 2026-04-26 18:42 | 37.36946 | -117.44341 | 38352 ft | 456 kts | 87° |
| 2026-04-26 18:42 | 37.37212 | -117.40367 | 38463 ft | 456 kts | 87° |
| 2026-04-26 18:42 | 37.37473 | -117.36435 | 38460 ft | 460 kts | 88° |
| 2026-04-26 18:43 | 37.37419 | -117.32449 | 38608 ft | 452 kts | 103° |
| 2026-04-26 18:43 | 37.36602 | -117.28689 | 38719 ft | 443 kts | 119° |
| 2026-04-26 18:43 | 37.35138 | -117.25324 | 38750 ft | 436 kts | 132° |
| 2026-04-26 18:43 | 37.33144 | -117.22513 | 38732 ft | 428 kts | 144° |
| 2026-04-26 18:44 | 37.28596 | -117.17681 | 38742 ft | 429 kts | 149° |
| 2026-04-26 18:44 | 37.23725 | -117.13458 | 38757 ft | 431 kts | 152° |
| 2026-04-26 18:45 | 37.18727 | -117.09216 | 38736 ft | 436 kts | 152° |
| 2026-04-26 18:45 | 37.13669 | -117.04941 | 38752 ft | 441 kts | 152° |
| 2026-04-26 18:46 | 37.08552 | -117.00626 | 38751 ft | 446 kts | 152° |
| 2026-04-26 18:46 | 37.03370 | -116.96262 | 38733 ft | 451 kts | 152° |
| 2026-04-26 18:47 | 36.98166 | -116.91888 | 38748 ft | 456 kts | 152° |
| 2026-04-26 18:47 | 36.92863 | -116.87439 | 38763 ft | 461 kts | 152° |
| 2026-04-26 18:48 | 36.87539 | -116.82978 | 38751 ft | 460 kts | 152° |
| 2026-04-26 18:48 | 36.82217 | -116.78528 | 38761 ft | 460 kts | 152° |
| 2026-04-26 18:49 | 36.76894 | -116.74084 | 38765 ft | 460 kts | 152° |
| 2026-04-26 18:49 | 36.71607 | -116.69677 | 38766 ft | 460 kts | 152° |
| 2026-04-26 18:50 | 36.66281 | -116.65245 | 38755 ft | 460 kts | 153° |
| 2026-04-26 18:50 | 36.61312 | -116.60171 | 38748 ft | 474 kts | 132° |
| 2026-04-26 18:51 | 36.58046 | -116.52926 | 38758 ft | 484 kts | 122° |
| 2026-04-26 18:51 | 36.55030 | -116.45508 | 38771 ft | 484 kts | 121° |
| 2026-04-26 18:52 | 36.52029 | -116.38020 | 38755 ft | 484 kts | 122° |
| 2026-04-26 18:52 | 36.49016 | -116.30507 | 38780 ft | 487 kts | 122° |
| 2026-04-26 18:53 | 36.45986 | -116.22967 | 38778 ft | 487 kts | 122° |
| 2026-04-26 18:53 | 36.42957 | -116.15449 | 38781 ft | 487 kts | 122° |
| 2026-04-26 18:54 | 36.39945 | -116.07990 | 38798 ft | 487 kts | 122° |
| 2026-04-26 18:54 | 36.36907 | -116.00483 | 38796 ft | 488 kts | 122° |
| 2026-04-26 18:55 | 36.33849 | -115.92943 | 38822 ft | 490 kts | 123° |